createdAt,value
2023-03-02T00:01:51.264Z,99780.98
2023-03-02T00:04:40.779Z,99777.27
2023-03-02T00:07:10.606Z,99779.40
2023-03-02T00:09:41.194Z,99777.63
2023-03-02T00:12:09.254Z,99776.98
2023-03-02T00:14:40.902Z,99778.66
2023-03-02T00:17:10.750Z,99779.98
2023-03-02T00:19:39.180Z,99775.10
2023-03-02T00:22:08.251Z,99769.90
2023-03-02T00:24:37.628Z,99774.15
2023-03-02T00:27:05.594Z,99773.41
2023-03-02T00:29:35.624Z,99774.84
2023-03-02T00:32:06.917Z,99772.75
2023-03-02T00:34:35.157Z,99770.33
2023-03-02T00:37:03.197Z,99765.88
2023-03-02T00:39:31.213Z,99763.16
2023-03-02T00:41:59.281Z,99764.54
2023-03-02T00:44:27.361Z,99760.02
2023-03-02T00:46:55.528Z,99761.13
2023-03-02T00:49:25.891Z,99757.86
2023-03-02T00:51:57.352Z,99755.29
2023-03-02T00:54:25.418Z,99752.73
2023-03-02T00:56:53.579Z,99750.08
2023-03-02T00:59:28.047Z,99749.13
2023-03-02T01:02:21.846Z,99747.91
2023-03-02T01:04:50.496Z,99743.48
2023-03-02T01:07:20.933Z,99743.32
2023-03-02T01:09:49.026Z,99739.61
2023-03-02T01:12:22.522Z,99733.79
2023-03-02T01:14:51.077Z,99728.09
2023-03-02T01:17:22.261Z,99725.95
2023-03-02T01:19:52.821Z,99718.52
2023-03-02T01:22:22.014Z,99716.46
2023-03-02T01:24:52.094Z,99717.00
2023-03-02T01:27:20.499Z,99720.64
2023-03-02T01:29:48.504Z,99720.55
2023-03-02T01:32:16.625Z,99716.42
2023-03-02T01:34:44.862Z,99717.89
2023-03-02T01:37:14.728Z,99708.23
2023-03-02T01:39:43.798Z,99710.68
2023-03-02T01:42:12.445Z,99711.52
2023-03-02T01:44:46.495Z,99706.86
2023-03-02T01:47:25.534Z,99700.34
2023-03-02T01:50:22.521Z,99700.69
2023-03-02T01:52:53.289Z,99697.71
2023-03-02T01:55:24.913Z,99697.44
2023-03-02T01:57:53.681Z,99695.52
2023-03-02T02:00:30.361Z,99699.63
2023-03-02T02:03:09.073Z,99696.88
2023-03-02T02:05:41.165Z,99697.77
2023-03-02T02:08:09.296Z,99698.09
2023-03-02T02:10:37.476Z,99696.64
2023-03-02T02:13:10.903Z,99696.19
2023-03-02T02:15:39.159Z,99695.94
2023-03-02T02:18:08.042Z,99699.18
2023-03-02T02:20:42.637Z,99693.35
2023-03-02T02:23:28.837Z,99687.11
2023-03-02T02:26:07.968Z,99694.30
2023-03-02T02:28:39.776Z,99690.31
2023-03-02T02:31:20.787Z,99684.00
2023-03-02T02:34:01.305Z,99683.77
2023-03-02T02:36:35.087Z,99682.98
2023-03-02T02:39:07.162Z,99687.78
2023-03-02T02:41:37.667Z,99687.77
2023-03-02T02:44:09.920Z,99693.05
2023-03-02T02:46:38.413Z,99694.93
2023-03-02T02:49:38.286Z,99689.05
2023-03-02T02:52:07.057Z,99688.36
2023-03-02T02:54:35.074Z,99690.02
2023-03-02T02:57:03.534Z,99687.91
2023-03-02T02:59:33.780Z,99690.39
2023-03-02T03:02:02.156Z,99690.90
2023-03-02T03:04:31.319Z,99687.10
2023-03-02T03:07:02.166Z,99683.09
2023-03-02T03:09:30.718Z,99681.14
2023-03-02T03:12:13.015Z,99683.35
2023-03-02T03:14:41.586Z,99683.61
2023-03-02T03:17:13.381Z,99682.66
2023-03-02T03:19:52.579Z,99684.60
2023-03-02T03:22:21.632Z,99679.48
2023-03-02T03:24:50.445Z,99678.18
2023-03-02T03:27:19.763Z,99680.45
2023-03-02T03:29:51.374Z,99686.67
2023-03-02T03:32:21.546Z,99687.66
2023-03-02T03:34:51.761Z,99686.78
2023-03-02T03:37:27.024Z,99685.96
2023-03-02T03:39:55.435Z,99685.66
2023-03-02T03:42:24.246Z,99680.02
2023-03-02T03:44:53.117Z,99680.44
2023-03-02T03:47:22.712Z,99674.02
2023-03-02T03:49:51.094Z,99670.14
2023-03-02T03:52:30.561Z,99669.75
2023-03-02T03:55:05.670Z,99667.71
2023-03-02T03:57:33.998Z,99661.51
2023-03-02T04:00:06.347Z,99659.81
2023-03-02T04:02:42.868Z,99659.09
2023-03-02T04:05:15.891Z,99658.77
2023-03-02T04:07:45.178Z,99660.90
2023-03-02T04:10:13.506Z,99662.37
2023-03-02T04:12:49.133Z,99662.63
2023-03-02T04:15:17.593Z,99666.31
2023-03-02T04:17:47.292Z,99665.39
2023-03-02T04:20:20.449Z,99666.09
2023-03-02T04:22:52.565Z,99669.45
2023-03-02T04:25:26.279Z,99663.54
2023-03-02T04:27:57.930Z,99661.28
2023-03-02T04:30:29.984Z,99657.83
2023-03-02T04:32:58.106Z,99654.30
2023-03-02T04:35:28.703Z,99651.49
2023-03-02T04:37:57.388Z,99648.39
2023-03-02T04:40:25.697Z,99648.02
2023-03-02T04:42:54.197Z,99643.20
2023-03-02T04:45:22.251Z,99648.59
2023-03-02T04:47:54.436Z,99648.11
2023-03-02T04:50:26.456Z,99645.19
2023-03-02T04:52:55.301Z,99646.84
2023-03-02T04:55:24.966Z,99643.39
2023-03-02T04:57:53.265Z,99644.23
2023-03-02T05:00:21.831Z,99644.28
2023-03-02T05:02:50.139Z,99644.62
2023-03-02T05:05:20.540Z,99644.69
2023-03-02T05:07:49.317Z,99648.17
2023-03-02T05:10:20.345Z,99652.02
2023-03-02T05:12:58.352Z,99650.42
2023-03-02T05:15:30.471Z,99651.89
2023-03-02T05:17:59.341Z,99652.50
2023-03-02T05:20:30.283Z,99655.41
2023-03-02T05:23:02.274Z,99655.79
2023-03-02T05:25:37.806Z,99657.32
2023-03-02T05:28:06.933Z,99659.85
2023-03-02T05:30:37.909Z,99665.63
2023-03-02T05:33:06.217Z,99669.30
2023-03-02T05:35:34.929Z,99669.72
2023-03-02T05:39:15.145Z,99671.93
2023-03-02T05:41:44.167Z,99674.42
2023-03-02T05:44:12.731Z,99677.24
2023-03-02T05:46:42.112Z,99677.74
2023-03-02T05:49:10.819Z,99680.70
2023-03-02T05:51:39.148Z,99682.18
2023-03-02T05:54:07.162Z,99683.25
2023-03-02T05:56:35.709Z,99683.86
2023-03-02T05:59:04.037Z,99685.30
2023-03-02T06:01:33.076Z,99683.01
2023-03-02T06:04:01.341Z,99688.48
2023-03-02T06:06:30.531Z,99693.03
2023-03-02T06:08:59.323Z,99694.52
2023-03-02T06:11:27.726Z,99691.76
2023-03-02T06:13:55.814Z,99693.42
2023-03-02T06:16:25.074Z,99695.98
2023-03-02T06:18:53.089Z,99692.21
2023-03-02T06:21:27.088Z,99688.83
2023-03-02T06:23:55.257Z,99690.77
2023-03-02T06:26:23.279Z,99692.00
2023-03-02T06:28:53.790Z,99692.70
2023-03-02T06:31:22.402Z,99689.70
2023-03-02T06:33:50.785Z,99690.05
2023-03-02T06:36:19.369Z,99689.11
2023-03-02T06:38:47.515Z,99691.67
2023-03-02T06:41:16.154Z,99686.70
2023-03-02T06:43:44.176Z,99685.92
2023-03-02T06:46:12.412Z,99686.27
2023-03-02T06:48:40.631Z,99681.59
2023-03-02T06:51:08.730Z,99681.10
2023-03-02T06:53:37.415Z,99680.45
2023-03-02T06:56:07.250Z,99679.19
2023-03-02T06:58:35.811Z,99679.40
2023-03-02T07:01:04.016Z,99675.61
2023-03-02T07:03:32.409Z,99678.31
2023-03-02T07:06:00.636Z,99673.52
2023-03-02T07:08:28.954Z,99674.09
2023-03-02T07:10:57.491Z,99669.84
2023-03-02T07:13:25.820Z,99669.70
2023-03-02T07:15:59.763Z,99664.38
2023-03-02T07:18:29.834Z,99660.08
2023-03-02T07:20:57.787Z,99657.33
2023-03-02T07:23:27.129Z,99657.58
2023-03-02T07:25:55.559Z,99655.48
2023-03-02T07:28:24.358Z,99658.23
2023-03-02T07:30:53.495Z,99656.60
2023-03-02T07:33:22.509Z,99654.63
2023-03-02T07:35:51.465Z,99649.95
2023-03-02T07:38:19.463Z,99646.06
2023-03-02T07:40:48.655Z,99646.58
2023-03-02T07:43:16.941Z,99649.54
2023-03-02T07:45:44.977Z,99650.63
2023-03-02T07:48:13.077Z,99648.75
2023-03-02T07:50:43.143Z,99644.88
2023-03-02T07:53:11.455Z,99647.15
2023-03-02T07:55:42.707Z,99650.52
2023-03-02T07:58:10.767Z,99652.71
2023-03-02T08:00:42.367Z,99650.11
2023-03-02T08:03:10.869Z,99648.12
2023-03-02T08:05:40.864Z,99644.63
2023-03-02T08:08:08.892Z,99644.11
2023-03-02T08:10:38.810Z,99644.77
2023-03-02T08:13:08.086Z,99645.67
2023-03-02T08:15:36.750Z,99646.23
2023-03-02T08:18:05.292Z,99642.13
2023-03-02T08:20:34.406Z,99643.37
2023-03-02T08:23:03.418Z,99641.41
2023-03-02T08:25:31.969Z,99644.31
2023-03-02T08:28:00.169Z,99641.02
2023-03-02T08:30:28.286Z,99638.66
2023-03-02T08:32:56.544Z,99636.64
2023-03-02T08:35:24.573Z,99632.74
2023-03-02T08:37:54.274Z,99635.30
2023-03-02T08:40:22.694Z,99636.46
2023-03-02T08:42:57.048Z,99631.48
2023-03-02T08:45:25.743Z,99632.36
2023-03-02T08:47:54.817Z,99632.27
2023-03-02T08:50:22.864Z,99630.09
2023-03-02T08:52:52.045Z,99628.85
2023-03-02T08:55:20.150Z,99629.23
2023-03-02T08:57:49.230Z,99629.18
2023-03-02T09:00:18.984Z,99630.42
2023-03-02T09:02:47.889Z,99631.95
2023-03-02T09:05:16.009Z,99631.06
2023-03-02T09:07:45.115Z,99627.30
2023-03-02T09:10:17.579Z,99633.13
2023-03-02T09:12:48.676Z,99630.52
2023-03-02T09:15:17.113Z,99632.21
2023-03-02T09:17:52.220Z,99628.58
2023-03-02T09:20:20.281Z,99628.01
2023-03-02T09:22:50.936Z,99623.16
2023-03-02T09:25:19.208Z,99621.63
2023-03-02T09:27:47.506Z,99618.44
2023-03-02T09:30:16.574Z,99618.60
2023-03-02T09:32:45.300Z,99615.23
2023-03-02T09:35:13.433Z,99618.27
2023-03-02T09:37:44.625Z,99612.54
2023-03-02T09:40:20.639Z,99610.95
2023-03-02T09:43:11.526Z,99606.59
2023-03-02T09:46:00.626Z,99607.16
2023-03-02T09:48:52.436Z,99605.02
2023-03-02T09:51:45.355Z,99608.29
2023-03-02T09:54:14.961Z,99604.20
2023-03-02T09:56:50.915Z,99604.30
2023-03-02T09:59:31.364Z,99606.73
2023-03-02T10:02:18.357Z,99601.23
2023-03-02T10:04:51.767Z,99591.58
2023-03-02T10:07:32.905Z,99583.45
2023-03-02T10:10:03.998Z,99579.63
2023-03-02T10:12:54.437Z,99579.17
2023-03-02T10:15:44.670Z,99572.96
2023-03-02T10:18:20.751Z,99574.13
2023-03-02T10:20:55.842Z,99570.01
2023-03-02T10:23:31.577Z,99567.91
2023-03-02T10:26:05.594Z,99565.27
2023-03-02T10:28:36.617Z,99561.08
2023-03-02T10:31:15.523Z,99558.79
2023-03-02T10:33:43.773Z,99559.52
2023-03-02T10:36:24.097Z,99558.39
2023-03-02T10:38:53.551Z,99555.44
2023-03-02T10:41:33.130Z,99557.21
2023-03-02T10:44:16.308Z,99555.60
2023-03-02T10:46:46.376Z,99554.69
2023-03-02T10:49:44.223Z,99551.13
2023-03-02T10:52:14.210Z,99550.85
2023-03-02T10:54:42.712Z,99551.16
2023-03-02T10:57:35.236Z,99545.29
2023-03-02T11:00:15.689Z,99538.82
2023-03-02T11:02:51.769Z,99539.75
2023-03-02T11:05:33.009Z,99539.39
2023-03-02T11:08:07.277Z,99537.27
2023-03-02T11:10:40.666Z,99533.16
2023-03-02T11:13:37.730Z,99534.60
2023-03-02T11:16:18.008Z,99524.69
2023-03-02T11:18:52.942Z,99522.78
2023-03-02T11:21:26.058Z,99523.28
2023-03-02T11:24:00.158Z,99520.05
2023-03-02T11:26:39.044Z,99516.87
2023-03-02T11:29:13.443Z,99515.53
2023-03-02T11:31:59.336Z,99513.03
2023-03-02T11:34:30.413Z,99515.43
2023-03-02T11:37:13.545Z,99512.05
2023-03-02T11:40:00.297Z,99505.21
2023-03-02T11:42:44.003Z,99503.08
2023-03-02T11:45:16.321Z,99495.14
2023-03-02T11:48:07.477Z,99492.86
2023-03-02T11:50:41.668Z,99491.68
2023-03-02T11:53:13.866Z,99489.08
2023-03-02T11:55:48.735Z,99483.60
2023-03-02T11:58:21.683Z,99481.39
2023-03-02T12:00:50.098Z,99477.95
2023-03-02T12:03:18.105Z,99477.30
2023-03-02T12:06:00.378Z,99476.73
2023-03-02T12:08:32.410Z,99474.46
2023-03-02T12:11:03.668Z,99478.39
2023-03-02T12:13:38.888Z,99474.15
2023-03-02T12:16:38.280Z,99472.73
2023-03-02T12:19:12.719Z,99468.02
2023-03-02T12:22:05.911Z,99463.89
2023-03-02T12:24:37.524Z,99458.56
2023-03-02T12:27:12.995Z,99456.42
2023-03-02T12:29:50.904Z,99454.08
2023-03-02T12:32:19.012Z,99452.03
2023-03-02T12:34:56.732Z,99448.47
2023-03-02T12:37:28.138Z,99448.61
2023-03-02T12:40:15.295Z,99444.34
2023-03-02T12:42:50.130Z,99443.98
2023-03-02T12:45:46.425Z,99442.62
2023-03-02T12:48:42.802Z,99436.55
2023-03-02T12:51:22.771Z,99435.77
2023-03-02T12:54:02.552Z,99431.11
2023-03-02T12:56:31.398Z,99426.02
2023-03-02T12:58:59.753Z,99424.42
2023-03-02T13:01:30.216Z,99419.34
2023-03-02T13:03:58.451Z,99418.11
2023-03-02T13:06:28.040Z,99410.26
2023-03-02T13:08:58.403Z,99412.80
2023-03-02T13:11:34.278Z,99404.99
2023-03-02T13:14:05.601Z,99403.48
2023-03-02T13:16:36.897Z,99399.94
2023-03-02T13:19:09.963Z,99394.02
2023-03-02T13:21:39.266Z,99390.18
2023-03-02T13:24:25.427Z,99390.59
2023-03-02T13:27:00.814Z,99387.12
2023-03-02T13:29:31.865Z,99387.75
2023-03-02T13:32:39.203Z,99383.04
2023-03-02T13:35:21.115Z,99383.67
2023-03-02T13:37:55.935Z,99376.23
2023-03-02T13:40:27.047Z,99374.92
2023-03-02T13:42:55.504Z,99373.50
2023-03-02T13:45:30.822Z,99371.06
2023-03-02T13:48:00.055Z,99370.38
2023-03-02T13:50:30.043Z,99367.61
2023-03-02T13:53:00.735Z,99362.60
2023-03-02T13:55:28.998Z,99363.79
2023-03-02T13:57:57.075Z,99360.89
2023-03-02T14:00:32.657Z,99360.01
2023-03-02T14:03:00.986Z,99355.47
2023-03-02T14:05:35.183Z,99352.38
2023-03-02T14:08:03.964Z,99346.23
2023-03-02T14:10:32.045Z,99344.13
2023-03-02T14:13:05.600Z,99341.14
2023-03-02T14:15:37.346Z,99333.38
2023-03-02T14:18:12.958Z,99335.61
2023-03-02T14:20:40.981Z,99329.45
2023-03-02T14:23:09.042Z,99331.67
2023-03-02T14:25:38.260Z,99331.52
2023-03-02T14:28:06.330Z,99325.74
2023-03-02T14:30:37.750Z,99323.11
2023-03-02T14:33:06.237Z,99321.71
2023-03-02T14:35:34.966Z,99320.80
2023-03-02T14:38:03.191Z,99322.25
2023-03-02T14:40:31.453Z,99321.81
2023-03-02T14:42:59.495Z,99318.42
2023-03-02T14:45:30.535Z,99317.19
2023-03-02T14:48:00.551Z,99311.70
2023-03-02T14:50:29.221Z,99313.17
2023-03-02T14:52:58.147Z,99309.86
2023-03-02T14:55:30.710Z,99310.56
2023-03-02T14:58:00.302Z,99313.42
2023-03-02T15:00:28.898Z,99308.72
2023-03-02T15:02:57.066Z,99307.48
2023-03-02T15:05:25.171Z,99310.17
2023-03-02T15:08:00.191Z,99308.78
2023-03-02T15:10:28.635Z,99307.16
2023-03-02T15:12:56.668Z,99306.52
2023-03-02T15:15:26.409Z,99307.37
2023-03-02T15:17:54.631Z,99310.31
2023-03-02T15:20:23.380Z,99306.77
2023-03-02T15:22:51.586Z,99311.94
2023-03-02T15:25:19.681Z,99310.08
2023-03-02T15:27:48.768Z,99310.70
2023-03-02T15:30:17.837Z,99315.40
2023-03-02T15:32:46.234Z,99315.53
2023-03-02T15:35:14.406Z,99316.30
2023-03-02T15:37:44.971Z,99316.20
2023-03-02T15:40:13.508Z,99317.11
2023-03-02T15:42:41.760Z,99321.25
2023-03-02T15:45:10.944Z,99319.20
2023-03-02T15:47:39.519Z,99315.56
2023-03-02T15:50:09.374Z,99313.66
2023-03-02T15:52:37.737Z,99315.02
2023-03-02T15:55:05.888Z,99315.61
2023-03-02T15:57:39.268Z,99320.91
2023-03-02T16:00:13.591Z,99324.23
2023-03-02T16:02:43.349Z,99321.79
2023-03-02T16:05:14.015Z,99324.77
2023-03-02T16:07:43.424Z,99322.64
2023-03-02T16:10:15.426Z,99323.98
2023-03-02T16:12:43.614Z,99326.58
2023-03-02T16:15:14.798Z,99328.98
2023-03-02T16:17:43.924Z,99326.80
2023-03-02T16:20:12.748Z,99330.34
2023-03-02T16:22:40.773Z,99330.52
2023-03-02T16:25:09.095Z,99328.66
2023-03-02T16:27:37.606Z,99330.23
2023-03-02T16:30:10.790Z,99331.10
2023-03-02T16:32:38.855Z,99332.83
2023-03-02T16:35:07.338Z,99333.88
2023-03-02T16:37:36.805Z,99338.41
2023-03-02T16:40:05.452Z,99341.35
2023-03-02T16:42:33.906Z,99340.08
2023-03-02T16:45:02.028Z,99342.52
2023-03-02T16:47:30.832Z,99338.95
2023-03-02T16:49:58.845Z,99340.85
2023-03-02T16:52:26.980Z,99342.58
2023-03-02T16:54:55.764Z,99342.72
2023-03-02T16:57:23.806Z,99341.29
2023-03-02T16:59:52.288Z,99343.92
2023-03-02T17:02:20.350Z,99345.21
2023-03-02T17:04:48.454Z,99350.23
2023-03-02T17:07:16.850Z,99348.57
2023-03-02T17:09:44.934Z,99349.10
2023-03-02T17:12:12.989Z,99351.16
2023-03-02T17:14:41.486Z,99353.18
2023-03-02T17:17:11.156Z,99355.56
2023-03-02T17:19:40.240Z,99355.45
2023-03-02T17:22:08.500Z,99357.66
2023-03-02T17:24:36.772Z,99357.98
2023-03-02T17:27:13.066Z,99357.85
2023-03-02T17:29:48.926Z,99359.69
2023-03-02T17:32:17.717Z,99360.70
2023-03-02T17:34:46.359Z,99363.15
2023-03-02T17:37:14.603Z,99360.21
2023-03-02T17:39:42.942Z,99362.72
2023-03-02T17:42:11.626Z,99359.80
2023-03-02T17:44:40.337Z,99356.40
2023-03-02T17:47:09.987Z,99357.10
2023-03-02T17:49:40.517Z,99356.20
2023-03-02T17:52:09.916Z,99355.42
2023-03-02T17:54:38.336Z,99352.56
2023-03-02T17:58:05.674Z,99348.20
2023-03-02T18:00:34.603Z,99348.81
2023-03-02T18:03:05.891Z,99350.08
2023-03-02T18:05:35.890Z,99347.45
2023-03-02T18:08:04.124Z,99347.68
2023-03-02T18:10:32.885Z,99350.35
2023-03-02T18:13:04.568Z,99348.39
2023-03-02T18:15:33.621Z,99351.09
2023-03-02T18:18:01.684Z,99346.96
2023-03-02T18:20:29.986Z,99349.36
2023-03-02T18:23:02.988Z,99343.70
2023-03-02T18:25:33.017Z,99343.79
2023-03-02T18:28:01.595Z,99343.15
2023-03-02T18:30:30.471Z,99346.06
2023-03-02T18:32:58.532Z,99347.36
2023-03-02T18:35:26.593Z,99353.41
2023-03-02T18:37:55.199Z,99352.20
2023-03-02T18:40:27.657Z,99354.78
2023-03-02T18:42:56.399Z,99351.92
2023-03-02T18:45:29.400Z,99352.95
2023-03-02T18:47:58.006Z,99355.21
2023-03-02T18:50:26.567Z,99357.26
2023-03-02T18:52:55.176Z,99351.64
2023-03-02T18:55:23.998Z,99347.36
2023-03-02T18:57:55.063Z,99345.15
2023-03-02T19:00:27.680Z,99345.83
2023-03-02T19:02:58.151Z,99343.92
2023-03-02T19:05:27.213Z,99342.08
2023-03-02T19:08:00.304Z,99340.63
2023-03-02T19:10:29.056Z,99338.82
2023-03-02T19:12:57.162Z,99339.23
2023-03-02T19:15:28.202Z,99337.30
2023-03-02T19:17:57.413Z,99339.08
2023-03-02T19:20:31.662Z,99342.80
2023-03-02T19:23:00.217Z,99343.57
2023-03-02T19:25:28.879Z,99345.79
2023-03-02T19:27:58.315Z,99346.44
2023-03-02T19:30:26.926Z,99348.65
2023-03-02T19:32:55.230Z,99346.55
2023-03-02T19:35:25.704Z,99346.66
2023-03-02T19:37:53.816Z,99344.79
2023-03-02T19:40:24.782Z,99350.25
2023-03-02T19:42:53.267Z,99347.36
2023-03-02T19:45:23.697Z,99347.77
2023-03-02T19:47:58.891Z,99345.22
2023-03-02T19:50:46.835Z,99346.15
2023-03-02T19:53:14.969Z,99344.20
2023-03-02T19:55:43.623Z,99343.12
2023-03-02T19:58:17.627Z,99343.55
2023-03-02T20:00:46.191Z,99341.77
2023-03-02T20:03:14.466Z,99340.67
2023-03-02T20:05:43.215Z,99339.23
2023-03-02T20:08:11.486Z,99334.54
2023-03-02T20:10:46.389Z,99334.63
2023-03-02T20:13:14.799Z,99332.61
2023-03-02T20:15:45.537Z,99331.10
2023-03-02T20:18:18.982Z,99332.00
2023-03-02T20:20:48.578Z,99333.61
2023-03-02T20:23:17.658Z,99329.55
2023-03-02T20:25:48.243Z,99325.73
2023-03-02T20:28:18.826Z,99327.20
2023-03-02T20:30:58.212Z,99320.60
2023-03-02T20:33:32.119Z,99316.10
2023-03-02T20:36:02.300Z,99315.86
2023-03-02T20:38:33.724Z,99311.88
2023-03-02T20:41:01.814Z,99309.96
2023-03-02T20:43:30.052Z,99310.40
2023-03-02T20:45:58.862Z,99306.41
2023-03-02T20:48:27.477Z,99304.08
2023-03-02T20:50:56.157Z,99305.86
2023-03-02T20:53:24.184Z,99304.52
2023-03-02T20:55:52.269Z,99300.45
2023-03-02T20:58:20.585Z,99300.05
2023-03-02T21:00:48.966Z,99296.35
2023-03-02T21:03:17.328Z,99294.33
2023-03-02T21:05:45.922Z,99287.43
2023-03-02T21:08:14.962Z,99289.45
2023-03-02T21:10:43.298Z,99285.42
2023-03-02T21:13:13.481Z,99285.35
2023-03-02T21:15:43.183Z,99281.73
2023-03-02T21:18:11.893Z,99279.18
2023-03-02T21:20:42.007Z,99278.02
2023-03-02T21:23:11.248Z,99272.39
2023-03-02T21:25:42.226Z,99265.51
2023-03-02T21:28:12.562Z,99263.52
2023-03-02T21:30:40.671Z,99259.89
2023-03-02T21:33:09.038Z,99254.95
2023-03-02T21:35:37.284Z,99253.92
2023-03-02T21:38:05.816Z,99250.35
2023-03-02T21:40:38.525Z,99246.30
2023-03-02T21:43:08.500Z,99245.74
2023-03-02T21:45:36.980Z,99242.49
2023-03-02T21:48:05.910Z,99242.50
2023-03-02T21:50:36.126Z,99238.21
2023-03-02T21:53:07.780Z,99235.77
2023-03-02T21:55:38.121Z,99236.64
2023-03-02T21:58:06.364Z,99233.67
2023-03-02T22:00:36.395Z,99232.15
2023-03-02T22:03:05.532Z,99233.02
2023-03-02T22:05:34.652Z,99226.45
2023-03-02T22:08:02.963Z,99226.96
2023-03-02T22:10:43.247Z,99223.66
2023-03-02T22:13:26.390Z,99219.23
2023-03-02T22:16:16.163Z,99220.56
2023-03-02T22:18:46.882Z,99214.70
2023-03-02T22:21:24.596Z,99215.39
2023-03-02T22:24:16.710Z,99211.30
2023-03-02T22:26:47.206Z,99210.73
2023-03-02T22:29:19.466Z,99204.65
2023-03-02T22:31:49.598Z,99205.75
2023-03-02T22:34:27.048Z,99200.49
2023-03-02T22:37:22.324Z,99196.13
2023-03-02T22:39:50.996Z,99195.38
2023-03-02T22:42:21.372Z,99191.63
2023-03-02T22:44:59.734Z,99186.49
2023-03-02T22:47:27.883Z,99189.61
2023-03-02T22:50:00.710Z,99196.52
2023-03-02T22:52:36.351Z,99189.20
2023-03-02T22:55:30.616Z,99187.70
2023-03-02T22:58:20.065Z,99183.93
2023-03-02T23:00:48.726Z,99176.66
2023-03-02T23:03:21.947Z,99176.97
2023-03-02T23:05:51.959Z,99175.15
2023-03-02T23:08:25.175Z,99170.98
2023-03-02T23:10:57.755Z,99171.41
2023-03-02T23:13:31.486Z,99172.36
2023-03-02T23:16:01.063Z,99172.55
2023-03-02T23:18:30.376Z,99172.77
2023-03-02T23:20:59.430Z,99169.39
2023-03-02T23:23:27.644Z,99166.55
2023-03-02T23:25:56.368Z,99167.55
2023-03-02T23:28:24.365Z,99168.57
2023-03-02T23:30:53.386Z,99164.75
2023-03-02T23:33:21.457Z,99166.27
2023-03-02T23:35:49.516Z,99159.39
2023-03-02T23:38:18.235Z,99159.86
2023-03-02T23:40:46.612Z,99157.34
2023-03-02T23:43:14.927Z,99159.28
2023-03-02T23:45:43.401Z,99154.59
2023-03-02T23:48:11.841Z,99154.71
2023-03-02T23:50:40.408Z,99161.08
2023-03-02T23:53:08.648Z,99163.60
2023-03-02T23:55:39.630Z,99162.46
2023-03-02T23:58:07.895Z,99160.93
